sensor_id;sensor_type;location;lat;lon;timestamp;pressure;altitude;pressure_sealevel;temperature;humidity
5905;BME280;2978;42.012;24.880;2022-11-15T00:01:26;99500.34;;;9.06;79.06
5905;BME280;2978;42.012;24.880;2022-11-15T00:03:52;99496.09;;;8.98;78.94
5905;BME280;2978;42.012;24.880;2022-11-15T00:06:17;99492.34;;;8.88;79.25
5905;BME280;2978;42.012;24.880;2022-11-15T00:08:43;99491.63;;;8.64;79.82
5905;BME280;2978;42.012;24.880;2022-11-15T00:11:10;99494.63;;;8.63;80.54
5905;BME280;2978;42.012;24.880;2022-11-15T00:13:36;99490.19;;;8.62;80.18
5905;BME280;2978;42.012;24.880;2022-11-15T00:16:02;99489.81;;;8.70;79.77
5905;BME280;2978;42.012;24.880;2022-11-15T00:18:29;99487.88;;;8.70;79.65
5905;BME280;2978;42.012;24.880;2022-11-15T00:20:55;99483.19;;;8.82;79.31
5905;BME280;2978;42.012;24.880;2022-11-15T00:23:21;99486.84;;;8.88;79.06
5905;BME280;2978;42.012;24.880;2022-11-15T00:25:46;99482.22;;;8.88;78.62
5905;BME280;2978;42.012;24.880;2022-11-15T00:28:12;99479.63;;;8.82;78.95
5905;BME280;2978;42.012;24.880;2022-11-15T00:30:37;99475.78;;;8.66;79.39
5905;BME280;2978;42.012;24.880;2022-11-15T00:33:06;99467.53;;;8.66;79.33
5905;BME280;2978;42.012;24.880;2022-11-15T00:35:33;99472.22;;;8.54;79.56
5905;BME280;2978;42.012;24.880;2022-11-15T00:37:59;99465.78;;;8.60;79.63
5905;BME280;2978;42.012;24.880;2022-11-15T00:40:25;99468.91;;;8.52;79.78
5905;BME280;2978;42.012;24.880;2022-11-15T00:42:50;99472.47;;;8.53;80.56
5905;BME280;2978;42.012;24.880;2022-11-15T00:45:16;99468.16;;;8.57;80.36
5905;BME280;2978;42.012;24.880;2022-11-15T00:47:44;99465.38;;;8.68;80.40
5905;BME280;2978;42.012;24.880;2022-11-15T00:50:10;99458.50;;;8.82;79.44
5905;BME280;2978;42.012;24.880;2022-11-15T00:52:35;99460.94;;;8.95;79.08
5905;BME280;2978;42.012;24.880;2022-11-15T00:55:01;99457.88;;;9.08;78.15
5905;BME280;2978;42.012;24.880;2022-11-15T00:57:26;99461.78;;;9.13;77.64
5905;BME280;2978;42.012;24.880;2022-11-15T00:59:52;99461.94;;;9.23;77.29
5905;BME280;2978;42.012;24.880;2022-11-15T01:02:17;99470.47;;;8.76;78.44
5905;BME280;2978;42.012;24.880;2022-11-15T01:04:43;99474.38;;;8.80;78.92
5905;BME280;2978;42.012;24.880;2022-11-15T01:07:08;99460.91;;;8.51;79.38
5905;BME280;2978;42.012;24.880;2022-11-15T01:09:34;99462.34;;;8.53;79.99
5905;BME280;2978;42.012;24.880;2022-11-15T01:11:59;99454.72;;;8.55;79.68
5905;BME280;2978;42.012;24.880;2022-11-15T01:14:25;99456.72;;;8.60;79.46
5905;BME280;2978;42.012;24.880;2022-11-15T01:16:50;99450.59;;;8.69;79.29
5905;BME280;2978;42.012;24.880;2022-11-15T01:19:16;99444.00;;;8.82;78.69
5905;BME280;2978;42.012;24.880;2022-11-15T01:21:41;99435.34;;;8.90;78.33
5905;BME280;2978;42.012;24.880;2022-11-15T01:24:08;99435.69;;;8.77;77.66
5905;BME280;2978;42.012;24.880;2022-11-15T01:26:36;99445.81;;;8.76;77.66
5905;BME280;2978;42.012;24.880;2022-11-15T01:29:02;99441.63;;;8.74;78.17
5905;BME280;2978;42.012;24.880;2022-11-15T01:31:27;99439.88;;;8.68;78.33
5905;BME280;2978;42.012;24.880;2022-11-15T01:33:53;99431.31;;;8.64;78.12
5905;BME280;2978;42.012;24.880;2022-11-15T01:36:20;99439.56;;;8.64;78.29
5905;BME280;2978;42.012;24.880;2022-11-15T01:39:07;99444.44;;;8.62;77.96
5905;BME280;2978;42.012;24.880;2022-11-15T01:41:33;99439.47;;;8.59;78.45
5905;BME280;2978;42.012;24.880;2022-11-15T01:47:04;99438.97;;;8.34;78.60
5905;BME280;2978;42.012;24.880;2022-11-15T01:49:33;99435.53;;;8.27;79.10
5905;BME280;2978;42.012;24.880;2022-11-15T01:52:02;99436.03;;;8.24;79.32
5905;BME280;2978;42.012;24.880;2022-11-15T01:54:29;99449.22;;;8.27;79.20
5905;BME280;2978;42.012;24.880;2022-11-15T01:57:05;99438.63;;;8.19;79.53
5905;BME280;2978;42.012;24.880;2022-11-15T01:59:32;99430.78;;;8.11;79.42
5905;BME280;2978;42.012;24.880;2022-11-15T02:01:58;99437.25;;;8.05;80.08
5905;BME280;2978;42.012;24.880;2022-11-15T02:04:37;99430.81;;;7.99;80.41
5905;BME280;2978;42.012;24.880;2022-11-15T02:07:06;99436.94;;;7.78;81.01
5905;BME280;2978;42.012;24.880;2022-11-15T02:09:36;99435.50;;;7.76;81.53
5905;BME280;2978;42.012;24.880;2022-11-15T02:12:02;99437.66;;;7.74;81.10
5905;BME280;2978;42.012;24.880;2022-11-15T02:14:28;99437.41;;;7.64;82.08
5905;BME280;2978;42.012;24.880;2022-11-15T02:17:28;99433.03;;;7.63;82.34
5905;BME280;2978;42.012;24.880;2022-11-15T02:26:07;99436.56;;;7.86;81.24
5905;BME280;2978;42.012;24.880;2022-11-15T02:34:05;99427.69;;;7.45;82.38
5905;BME280;2978;42.012;24.880;2022-11-15T02:42:02;99415.63;;;7.69;81.76
5905;BME280;2978;42.012;24.880;2022-11-15T02:44:37;99420.50;;;7.78;80.89
5905;BME280;2978;42.012;24.880;2022-11-15T02:47:07;99428.94;;;7.88;79.90
5905;BME280;2978;42.012;24.880;2022-11-15T02:49:41;99428.44;;;7.91;79.34
5905;BME280;2978;42.012;24.880;2022-11-15T02:52:09;99433.91;;;8.03;79.35
5905;BME280;2978;42.012;24.880;2022-11-15T02:54:34;99425.91;;;8.13;78.84
5905;BME280;2978;42.012;24.880;2022-11-15T02:57:06;99429.34;;;8.20;78.16
5905;BME280;2978;42.012;24.880;2022-11-15T03:16:04;99402.94;;;8.14;77.91
5905;BME280;2978;42.012;24.880;2022-11-15T03:18:41;99410.22;;;8.09;77.35
5905;BME280;2978;42.012;24.880;2022-11-15T03:21:10;99402.25;;;8.07;78.07
5905;BME280;2978;42.012;24.880;2022-11-15T03:23:39;99409.38;;;8.08;78.02
5905;BME280;2978;42.012;24.880;2022-11-15T03:26:07;99414.94;;;8.13;77.98
5905;BME280;2978;42.012;24.880;2022-11-15T03:28:38;99401.00;;;8.15;77.77
5905;BME280;2978;42.012;24.880;2022-11-15T03:31:06;99396.97;;;8.06;77.60
5905;BME280;2978;42.012;24.880;2022-11-15T03:33:55;99400.00;;;7.92;77.96
5905;BME280;2978;42.012;24.880;2022-11-15T03:36:23;99406.44;;;7.86;78.43
5905;BME280;2978;42.012;24.880;2022-11-15T03:38:53;99402.78;;;7.81;78.49
5905;BME280;2978;42.012;24.880;2022-11-15T03:41:39;99399.31;;;7.85;78.98
5905;BME280;2978;42.012;24.880;2022-11-15T03:44:23;99393.69;;;7.92;78.29
5905;BME280;2978;42.012;24.880;2022-11-15T03:47:03;99394.88;;;7.96;78.10
5905;BME280;2978;42.012;24.880;2022-11-15T03:49:36;99386.88;;;8.06;77.49
5905;BME280;2978;42.012;24.880;2022-11-15T03:52:04;99391.47;;;8.17;76.85
5905;BME280;2978;42.012;24.880;2022-11-15T03:54:30;99387.53;;;8.25;76.70
5905;BME280;2978;42.012;24.880;2022-11-15T03:56:55;99373.38;;;8.16;76.09
5905;BME280;2978;42.012;24.880;2022-11-15T03:59:21;99386.97;;;8.11;76.44
5905;BME280;2978;42.012;24.880;2022-11-15T04:01:47;99384.13;;;8.06;76.66
5905;BME280;2978;42.012;24.880;2022-11-15T04:04:12;99380.59;;;7.94;77.15
5905;BME280;2978;42.012;24.880;2022-11-15T04:06:38;99381.81;;;7.86;77.43
5905;BME280;2978;42.012;24.880;2022-11-15T04:09:03;99382.44;;;7.77;77.62
5905;BME280;2978;42.012;24.880;2022-11-15T04:11:29;99371.41;;;7.72;77.37
5905;BME280;2978;42.012;24.880;2022-11-15T04:13:54;99380.06;;;7.80;77.05
5905;BME280;2978;42.012;24.880;2022-11-15T04:16:20;99373.16;;;7.78;77.44
5905;BME280;2978;42.012;24.880;2022-11-15T04:18:45;99359.38;;;7.73;77.49
5905;BME280;2978;42.012;24.880;2022-11-15T04:21:31;99367.88;;;7.88;77.20
5905;BME280;2978;42.012;24.880;2022-11-15T04:24:15;99354.19;;;7.88;77.36
5905;BME280;2978;42.012;24.880;2022-11-15T04:26:40;99371.00;;;7.80;77.59
5905;BME280;2978;42.012;24.880;2022-11-15T04:29:06;99370.41;;;7.78;76.73
5905;BME280;2978;42.012;24.880;2022-11-15T04:31:50;99359.84;;;7.70;76.96
5905;BME280;2978;42.012;24.880;2022-11-15T04:34:15;99365.44;;;7.75;77.30
5905;BME280;2978;42.012;24.880;2022-11-15T04:36:41;99359.31;;;7.56;78.21
5905;BME280;2978;42.012;24.880;2022-11-15T04:39:25;99357.75;;;7.49;78.23
5905;BME280;2978;42.012;24.880;2022-11-15T04:41:50;99361.69;;;7.53;78.04
5905;BME280;2978;42.012;24.880;2022-11-15T04:44:16;99355.38;;;7.52;77.97
5905;BME280;2978;42.012;24.880;2022-11-15T04:46:41;99365.81;;;7.55;77.46
5905;BME280;2978;42.012;24.880;2022-11-15T04:49:06;99355.38;;;7.52;77.55
5905;BME280;2978;42.012;24.880;2022-11-15T04:51:32;99353.94;;;7.50;77.37
5905;BME280;2978;42.012;24.880;2022-11-15T04:53:57;99363.81;;;7.51;76.90
5905;BME280;2978;42.012;24.880;2022-11-15T04:56:23;99363.47;;;7.47;77.36
5905;BME280;2978;42.012;24.880;2022-11-15T04:58:49;99365.25;;;7.42;77.81
5905;BME280;2978;42.012;24.880;2022-11-15T05:01:15;99363.00;;;7.39;77.86
5905;BME280;2978;42.012;24.880;2022-11-15T05:03:44;99351.25;;;7.27;78.02
5905;BME280;2978;42.012;24.880;2022-11-15T05:06:28;99358.47;;;7.33;78.42
5905;BME280;2978;42.012;24.880;2022-11-15T05:08:54;99365.16;;;7.37;77.69
5905;BME280;2978;42.012;24.880;2022-11-15T05:11:21;99352.31;;;7.37;77.99
5905;BME280;2978;42.012;24.880;2022-11-15T05:13:46;99362.91;;;7.34;77.15
5905;BME280;2978;42.012;24.880;2022-11-15T05:16:12;99355.63;;;7.39;77.52
5905;BME280;2978;42.012;24.880;2022-11-15T05:18:37;99358.94;;;7.41;77.32
5905;BME280;2978;42.012;24.880;2022-11-15T05:21:12;99359.19;;;7.40;77.16
5905;BME280;2978;42.012;24.880;2022-11-15T05:23:38;99360.63;;;7.42;76.35
5905;BME280;2978;42.012;24.880;2022-11-15T05:26:05;99359.91;;;7.47;76.35
5905;BME280;2978;42.012;24.880;2022-11-15T05:28:31;99362.38;;;7.48;76.62
5905;BME280;2978;42.012;24.880;2022-11-15T05:31:05;99362.97;;;7.50;76.01
5905;BME280;2978;42.012;24.880;2022-11-15T05:33:32;99357.53;;;7.39;76.26
5905;BME280;2978;42.012;24.880;2022-11-15T05:36:02;99362.56;;;7.30;76.42
5905;BME280;2978;42.012;24.880;2022-11-15T05:38:30;99365.63;;;7.34;76.88
5905;BME280;2978;42.012;24.880;2022-11-15T05:40:55;99364.44;;;7.30;77.25
5905;BME280;2978;42.012;24.880;2022-11-15T05:43:22;99366.19;;;7.36;76.61
5905;BME280;2978;42.012;24.880;2022-11-15T05:45:48;99358.47;;;7.33;76.09
5905;BME280;2978;42.012;24.880;2022-11-15T05:48:14;99368.13;;;7.24;76.19
5905;BME280;2978;42.012;24.880;2022-11-15T05:50:43;99358.03;;;7.24;76.47
5905;BME280;2978;42.012;24.880;2022-11-15T05:53:12;99370.50;;;7.32;77.17
5905;BME280;2978;42.012;24.880;2022-11-15T05:55:39;99372.88;;;7.40;76.72
5905;BME280;2978;42.012;24.880;2022-11-15T05:58:06;99370.94;;;7.52;76.11
5905;BME280;2978;42.012;24.880;2022-11-15T06:00:32;99376.31;;;7.47;76.15
5905;BME280;2978;42.012;24.880;2022-11-15T06:02:57;99378.31;;;7.63;75.67
5905;BME280;2978;42.012;24.880;2022-11-15T06:05:23;99387.91;;;7.65;75.81
5905;BME280;2978;42.012;24.880;2022-11-15T06:07:48;99390.69;;;7.54;75.16
5905;BME280;2978;42.012;24.880;2022-11-15T06:10:14;99389.84;;;7.65;75.46
5905;BME280;2978;42.012;24.880;2022-11-15T06:12:39;99390.19;;;7.57;74.97
5905;BME280;2978;42.012;24.880;2022-11-15T06:15:05;99378.09;;;7.53;75.48
5905;BME280;2978;42.012;24.880;2022-11-15T06:17:31;99392.19;;;7.73;75.52
5905;BME280;2978;42.012;24.880;2022-11-15T06:19:56;99400.97;;;7.86;74.64
5905;BME280;2978;42.012;24.880;2022-11-15T06:22:21;99392.06;;;7.91;73.80
5905;BME280;2978;42.012;24.880;2022-11-15T06:24:47;99397.63;;;7.96;73.98
5905;BME280;2978;42.012;24.880;2022-11-15T06:27:12;99398.91;;;8.05;72.91
5905;BME280;2978;42.012;24.880;2022-11-15T06:29:38;99402.94;;;8.14;72.24
5905;BME280;2978;42.012;24.880;2022-11-15T06:32:03;99401.75;;;8.10;72.17
5905;BME280;2978;42.012;24.880;2022-11-15T06:34:29;99403.31;;;8.06;71.63
5905;BME280;2978;42.012;24.880;2022-11-15T06:36:54;99401.31;;;8.02;72.68
5905;BME280;2978;42.012;24.880;2022-11-15T06:39:20;99400.91;;;8.10;71.33
5905;BME280;2978;42.012;24.880;2022-11-15T06:41:45;99392.94;;;8.08;71.18
5905;BME280;2978;42.012;24.880;2022-11-15T06:44:11;99392.50;;;7.99;70.96
5905;BME280;2978;42.012;24.880;2022-11-15T06:46:36;99391.63;;;8.11;71.53
5905;BME280;2978;42.012;24.880;2022-11-15T06:49:02;99389.34;;;8.19;71.33
5905;BME280;2978;42.012;24.880;2022-11-15T06:51:27;99381.13;;;8.19;71.85
5905;BME280;2978;42.012;24.880;2022-11-15T06:53:53;99391.00;;;8.20;71.52
5905;BME280;2978;42.012;24.880;2022-11-15T06:56:18;99394.41;;;7.99;71.77
5905;BME280;2978;42.012;24.880;2022-11-15T06:58:43;99370.97;;;7.91;71.61
5905;BME280;2978;42.012;24.880;2022-11-15T07:01:11;99391.91;;;7.97;71.84
5905;BME280;2978;42.012;24.880;2022-11-15T07:03:39;99382.59;;;8.10;72.22
5905;BME280;2978;42.012;24.880;2022-11-15T07:06:05;99377.34;;;8.09;71.89
5905;BME280;2978;42.012;24.880;2022-11-15T07:08:31;99369.94;;;8.09;71.20
5905;BME280;2978;42.012;24.880;2022-11-15T07:11:02;99368.88;;;8.10;71.71
5905;BME280;2978;42.012;24.880;2022-11-15T07:13:28;99368.41;;;8.13;71.46
5905;BME280;2978;42.012;24.880;2022-11-15T07:15:54;99370.63;;;8.16;71.10
5905;BME280;2978;42.012;24.880;2022-11-15T07:18:20;99368.50;;;8.18;70.81
5905;BME280;2978;42.012;24.880;2022-11-15T07:20:46;99374.78;;;8.30;70.87
5905;BME280;2978;42.012;24.880;2022-11-15T07:23:11;99381.94;;;8.48;69.81
5905;BME280;2978;42.012;24.880;2022-11-15T07:25:37;99371.06;;;8.53;69.63
5905;BME280;2978;42.012;24.880;2022-11-15T07:28:03;99371.19;;;8.74;69.32
5905;BME280;2978;42.012;24.880;2022-11-15T07:30:29;99376.34;;;8.87;68.10
5905;BME280;2978;42.012;24.880;2022-11-15T07:32:56;99381.16;;;9.13;67.37
5905;BME280;2978;42.012;24.880;2022-11-15T07:35:22;99366.34;;;9.31;66.17
5905;BME280;2978;42.012;24.880;2022-11-15T07:38:01;99375.47;;;9.37;65.60
5905;BME280;2978;42.012;24.880;2022-11-15T07:40:29;99369.72;;;9.55;64.75
5905;BME280;2978;42.012;24.880;2022-11-15T07:43:05;99371.06;;;9.74;63.60
5905;BME280;2978;42.012;24.880;2022-11-15T07:45:32;99369.25;;;9.63;63.49
5905;BME280;2978;42.012;24.880;2022-11-15T07:48:00;99362.22;;;9.88;62.80
5905;BME280;2978;42.012;24.880;2022-11-15T07:50:26;99370.81;;;9.97;62.33
5905;BME280;2978;42.012;24.880;2022-11-15T07:52:59;99369.84;;;10.08;61.27
5905;BME280;2978;42.012;24.880;2022-11-15T07:55:26;99362.63;;;10.02;61.76
5905;BME280;2978;42.012;24.880;2022-11-15T07:57:52;99368.66;;;10.20;61.21
5905;BME280;2978;42.012;24.880;2022-11-15T08:00:18;99360.88;;;10.39;60.16
5905;BME280;2978;42.012;24.880;2022-11-15T08:02:44;99368.81;;;10.62;60.04
5905;BME280;2978;42.012;24.880;2022-11-15T08:05:09;99366.84;;;10.84;59.42
5905;BME280;2978;42.012;24.880;2022-11-15T08:07:34;99361.19;;;11.01;59.41
5905;BME280;2978;42.012;24.880;2022-11-15T08:10:00;99365.16;;;11.20;58.89
5905;BME280;2978;42.012;24.880;2022-11-15T08:12:27;99357.28;;;11.33;57.91
5905;BME280;2978;42.012;24.880;2022-11-15T08:14:54;99358.19;;;11.49;57.17
5905;BME280;2978;42.012;24.880;2022-11-15T08:17:21;99357.78;;;11.67;57.46
5905;BME280;2978;42.012;24.880;2022-11-15T08:19:47;99357.59;;;11.84;56.46
5905;BME280;2978;42.012;24.880;2022-11-15T08:22:13;99361.00;;;12.01;56.16
5905;BME280;2978;42.012;24.880;2022-11-15T08:24:38;99357.97;;;12.07;56.50
5905;BME280;2978;42.012;24.880;2022-11-15T08:27:04;99350.59;;;12.28;55.93
5905;BME280;2978;42.012;24.880;2022-11-15T08:29:29;99354.22;;;12.43;56.12
5905;BME280;2978;42.012;24.880;2022-11-15T08:31:55;99342.91;;;12.45;56.71
5905;BME280;2978;42.012;24.880;2022-11-15T08:34:21;99350.91;;;12.41;57.12
5905;BME280;2978;42.012;24.880;2022-11-15T08:36:46;99345.09;;;12.38;56.95
5905;BME280;2978;42.012;24.880;2022-11-15T08:39:12;99335.19;;;12.42;57.53
5905;BME280;2978;42.012;24.880;2022-11-15T08:41:38;99341.00;;;12.51;58.08
5905;BME280;2978;42.012;24.880;2022-11-15T08:44:04;99341.03;;;12.66;59.42
5905;BME280;2978;42.012;24.880;2022-11-15T08:46:29;99333.03;;;12.74;60.56
5905;BME280;2978;42.012;24.880;2022-11-15T08:48:55;99338.56;;;12.84;60.57
5905;BME280;2978;42.012;24.880;2022-11-15T08:51:20;99332.75;;;12.81;61.05
5905;BME280;2978;42.012;24.880;2022-11-15T08:53:46;99324.75;;;12.84;65.35
5905;BME280;2978;42.012;24.880;2022-11-15T08:56:14;99325.31;;;12.86;66.48
5905;BME280;2978;42.012;24.880;2022-11-15T08:58:40;99318.44;;;13.09;65.54
5905;BME280;2978;42.012;24.880;2022-11-15T09:01:05;99306.28;;;13.25;65.01
5905;BME280;2978;42.012;24.880;2022-11-15T09:03:31;99306.78;;;13.42;65.48
5905;BME280;2978;42.012;24.880;2022-11-15T09:05:58;99311.13;;;13.68;66.99
5905;BME280;2978;42.012;24.880;2022-11-15T09:08:24;99293.91;;;13.81;69.57
5905;BME280;2978;42.012;24.880;2022-11-15T09:10:49;99302.16;;;13.96;70.27
5905;BME280;2978;42.012;24.880;2022-11-15T09:13:15;99300.50;;;13.95;70.79
5905;BME280;2978;42.012;24.880;2022-11-15T09:15:40;99286.19;;;13.83;71.45
5905;BME280;2978;42.012;24.880;2022-11-15T09:18:06;99287.00;;;13.84;70.37
5905;BME280;2978;42.012;24.880;2022-11-15T09:20:31;99274.81;;;13.90;70.78
5905;BME280;2978;42.012;24.880;2022-11-15T09:23:03;99275.84;;;14.04;70.72
5905;BME280;2978;42.012;24.880;2022-11-15T09:25:29;99268.09;;;14.06;70.27
5905;BME280;2978;42.012;24.880;2022-11-15T09:27:55;99259.47;;;14.17;69.75
5905;BME280;2978;42.012;24.880;2022-11-15T09:30:20;99250.56;;;14.25;69.66
5905;BME280;2978;42.012;24.880;2022-11-15T09:32:46;99253.34;;;14.20;69.90
5905;BME280;2978;42.012;24.880;2022-11-15T09:35:11;99257.97;;;14.40;69.26
5905;BME280;2978;42.012;24.880;2022-11-15T09:37:37;99245.09;;;14.54;68.91
5905;BME280;2978;42.012;24.880;2022-11-15T09:40:03;99249.34;;;14.80;67.98
5905;BME280;2978;42.012;24.880;2022-11-15T09:45:36;99240.81;;;15.00;65.19
5905;BME280;2978;42.012;24.880;2022-11-15T09:50:51;99237.47;;;15.03;64.99
5905;BME280;2978;42.012;24.880;2022-11-15T09:55:58;99222.16;;;15.11;64.58
5905;BME280;2978;42.012;24.880;2022-11-15T09:58:39;99226.72;;;15.25;64.68
5905;BME280;2978;42.012;24.880;2022-11-15T10:04:04;99209.97;;;15.35;63.75
5905;BME280;2978;42.012;24.880;2022-11-15T10:06:31;99218.72;;;15.47;63.46
5905;BME280;2978;42.012;24.880;2022-11-15T10:09:21;99216.19;;;15.51;62.88
5905;BME280;2978;42.012;24.880;2022-11-15T10:11:49;99218.13;;;15.50;62.67
5905;BME280;2978;42.012;24.880;2022-11-15T10:14:24;99207.63;;;15.47;62.95
5905;BME280;2978;42.012;24.880;2022-11-15T10:19:38;99196.41;;;15.57;63.24
5905;BME280;2978;42.012;24.880;2022-11-15T10:27:33;99196.50;;;15.71;62.51
5905;BME280;2978;42.012;24.880;2022-11-15T10:29:59;99196.44;;;15.76;62.69
5905;BME280;2978;42.012;24.880;2022-11-15T10:32:25;99193.31;;;15.83;62.94
5905;BME280;2978;42.012;24.880;2022-11-15T10:34:50;99189.09;;;15.66;63.71
5905;BME280;2978;42.012;24.880;2022-11-15T10:37:42;99179.38;;;15.88;63.12
5905;BME280;2978;42.012;24.880;2022-11-15T10:40:22;99185.97;;;15.92;62.34
5905;BME280;2978;42.012;24.880;2022-11-15T10:43:05;99167.84;;;15.81;62.43
5905;BME280;2978;42.012;24.880;2022-11-15T10:45:32;99166.13;;;15.85;62.48
5905;BME280;2978;42.012;24.880;2022-11-15T10:50:41;99161.22;;;15.76;62.70
5905;BME280;2978;42.012;24.880;2022-11-15T10:53:31;99158.38;;;15.82;62.70
5905;BME280;2978;42.012;24.880;2022-11-15T10:56:06;99162.75;;;15.88;62.37
5905;BME280;2978;42.012;24.880;2022-11-15T10:58:39;99160.50;;;15.90;61.88
5905;BME280;2978;42.012;24.880;2022-11-15T11:01:14;99158.09;;;16.02;61.82
5905;BME280;2978;42.012;24.880;2022-11-15T11:03:40;99150.09;;;16.00;61.47
5905;BME280;2978;42.012;24.880;2022-11-15T11:06:13;99142.72;;;15.91;61.63
5905;BME280;2978;42.012;24.880;2022-11-15T11:08:39;99152.63;;;15.97;61.65
5905;BME280;2978;42.012;24.880;2022-11-15T11:11:06;99147.22;;;15.87;61.47
5905;BME280;2978;42.012;24.880;2022-11-15T11:13:39;99136.19;;;15.82;61.83
5905;BME280;2978;42.012;24.880;2022-11-15T11:25:01;99126.75;;;15.22;64.30
5905;BME280;2978;42.012;24.880;2022-11-15T11:30:08;99124.00;;;14.98;65.03
5905;BME280;2978;42.012;24.880;2022-11-15T11:35:17;99118.63;;;14.83;65.67
5905;BME280;2978;42.012;24.880;2022-11-15T11:41:10;99099.72;;;14.66;66.25
5905;BME280;2978;42.012;24.880;2022-11-15T11:43:47;99095.91;;;14.62;66.80
5905;BME280;2978;42.012;24.880;2022-11-15T11:46:28;99093.88;;;14.68;66.90
5905;BME280;2978;42.012;24.880;2022-11-15T11:57:22;99079.72;;;14.46;69.10
5905;BME280;2978;42.012;24.880;2022-11-15T12:00:01;99070.47;;;14.60;68.14
5905;BME280;2978;42.012;24.880;2022-11-15T12:02:31;99070.03;;;14.48;68.23
5905;BME280;2978;42.012;24.880;2022-11-15T12:05:09;99064.72;;;14.23;69.25
5905;BME280;2978;42.012;24.880;2022-11-15T12:07:39;99058.88;;;14.25;68.94
5905;BME280;2978;42.012;24.880;2022-11-15T12:10:22;99046.19;;;13.95;69.55
5905;BME280;2978;42.012;24.880;2022-11-15T12:13:11;99049.28;;;13.89;70.01
5905;BME280;2978;42.012;24.880;2022-11-15T12:15:50;99048.41;;;13.93;70.14
5905;BME280;2978;42.012;24.880;2022-11-15T12:18:18;99039.16;;;14.08;69.76
5905;BME280;2978;42.012;24.880;2022-11-15T12:21:04;99043.53;;;14.14;69.08
5905;BME280;2978;42.012;24.880;2022-11-15T12:23:39;99038.69;;;14.24;69.10
5905;BME280;2978;42.012;24.880;2022-11-15T12:26:11;99036.41;;;14.36;68.57
5905;BME280;2978;42.012;24.880;2022-11-15T12:31:18;99035.69;;;14.26;68.84
5905;BME280;2978;42.012;24.880;2022-11-15T12:33:47;99031.94;;;14.12;69.42
5905;BME280;2978;42.012;24.880;2022-11-15T12:38:57;99030.69;;;14.23;68.59
5905;BME280;2978;42.012;24.880;2022-11-15T12:41:33;99022.91;;;14.30;68.39
5905;BME280;2978;42.012;24.880;2022-11-15T12:44:00;99023.44;;;14.32;68.48
5905;BME280;2978;42.012;24.880;2022-11-15T12:59:54;99002.50;;;14.26;68.67
5905;BME280;2978;42.012;24.880;2022-11-15T13:02:42;98990.03;;;14.28;68.74
5905;BME280;2978;42.012;24.880;2022-11-15T13:15:31;98980.13;;;14.46;68.17
5905;BME280;2978;42.012;24.880;2022-11-15T13:17:58;98975.81;;;14.40;68.55
5905;BME280;2978;42.012;24.880;2022-11-15T13:20:25;98953.25;;;14.28;68.50
5905;BME280;2978;42.012;24.880;2022-11-15T13:28:27;98958.00;;;14.22;69.72
5905;BME280;2978;42.012;24.880;2022-11-15T13:30:57;98959.94;;;14.22;70.23
5905;BME280;2978;42.012;24.880;2022-11-15T13:33:37;98956.56;;;14.25;70.12
5905;BME280;2978;42.012;24.880;2022-11-15T13:36:13;98963.63;;;14.12;70.60
5905;BME280;2978;42.012;24.880;2022-11-15T13:38:41;98952.22;;;14.19;70.54
5905;BME280;2978;42.012;24.880;2022-11-15T13:41:27;98953.25;;;14.23;70.38
5905;BME280;2978;42.012;24.880;2022-11-15T13:43:54;98959.31;;;14.30;70.49
5905;BME280;2978;42.012;24.880;2022-11-15T13:49:03;98954.91;;;14.29;70.81
5905;BME280;2978;42.012;24.880;2022-11-15T13:51:47;98947.25;;;14.16;70.78
5905;BME280;2978;42.012;24.880;2022-11-15T13:54:29;98951.75;;;14.12;71.76
5905;BME280;2978;42.012;24.880;2022-11-15T13:57:03;98946.09;;;14.22;71.85
5905;BME280;2978;42.012;24.880;2022-11-15T14:00:06;98945.88;;;14.18;71.82
5905;BME280;2978;42.012;24.880;2022-11-15T14:02:34;98948.56;;;14.23;72.03
5905;BME280;2978;42.012;24.880;2022-11-15T14:05:15;98947.00;;;14.17;71.63
5905;BME280;2978;42.012;24.880;2022-11-15T14:07:59;98942.94;;;14.10;71.49
5905;BME280;2978;42.012;24.880;2022-11-15T14:10:31;98931.16;;;13.99;72.61
5905;BME280;2978;42.012;24.880;2022-11-15T14:12:57;98942.16;;;13.76;73.02
5905;BME280;2978;42.012;24.880;2022-11-15T14:17:58;98947.13;;;13.79;73.25
5905;BME280;2978;42.012;24.880;2022-11-15T14:22:53;98932.75;;;13.48;74.07
5905;BME280;2978;42.012;24.880;2022-11-15T14:25:21;98939.06;;;13.53;74.38
5905;BME280;2978;42.012;24.880;2022-11-15T14:30:42;98934.66;;;13.52;74.17
5905;BME280;2978;42.012;24.880;2022-11-15T14:35:43;98937.09;;;13.59;74.62
5905;BME280;2978;42.012;24.880;2022-11-15T14:38:09;98935.44;;;13.58;74.81
5905;BME280;2978;42.012;24.880;2022-11-15T14:40:34;98932.47;;;13.49;74.97
5905;BME280;2978;42.012;24.880;2022-11-15T14:42:59;98927.88;;;13.40;75.14
5905;BME280;2978;42.012;24.880;2022-11-15T14:45:27;98936.50;;;13.33;76.21
5905;BME280;2978;42.012;24.880;2022-11-15T14:47:52;98923.38;;;13.15;77.16
5905;BME280;2978;42.012;24.880;2022-11-15T14:50:21;98929.97;;;13.19;76.92
5905;BME280;2978;42.012;24.880;2022-11-15T14:52:47;98927.72;;;13.26;76.85
5905;BME280;2978;42.012;24.880;2022-11-15T14:55:18;98929.88;;;13.29;76.60
5905;BME280;2978;42.012;24.880;2022-11-15T14:57:45;98919.03;;;13.04;77.32
5905;BME280;2978;42.012;24.880;2022-11-15T15:00:12;98915.41;;;13.09;77.40
5905;BME280;2978;42.012;24.880;2022-11-15T15:02:37;98925.00;;;13.21;77.12
5905;BME280;2978;42.012;24.880;2022-11-15T15:05:15;98927.38;;;13.33;77.04
5905;BME280;2978;42.012;24.880;2022-11-15T15:08:15;98922.97;;;13.27;76.62
5905;BME280;2978;42.012;24.880;2022-11-15T15:10:43;98913.94;;;13.21;76.50
5905;BME280;2978;42.012;24.880;2022-11-15T15:13:33;98922.81;;;13.13;76.88
5905;BME280;2978;42.012;24.880;2022-11-15T15:15:59;98923.38;;;13.15;76.95
5905;BME280;2978;42.012;24.880;2022-11-15T15:24:48;98925.34;;;13.10;77.35
